Parma, Missouri
Current Conditions -  °F | °C
As of 3:53 AM on Friday 28 Nov 2014 (Local Time) from KPOF Reporting Station
Haze Haze  
Wind Chill: 26°   Ceiling: Unl
Heat Index: 26°   Visibility: 6mi
Dew Point: 22°   Wind: 0mph
Humidity: 84%   Direction: NA
Pressure: 30.4"   Gusts: NA
Location:  36.61°N, 89.82°W
Report Text: KPOF 280953Z AUTO 00000KT 6SM BR CLR M03/M06 A3040 RMK AO2 SLP299 I1000 T10331056
Loading
Personal Weather Stations






























Interactive Weather Map New forecast layout! Learn more

10-Day Weather Forecast

Advertisements
Track Severe Weather on mobile